EPGD/GDN METAR and TAF weather

Enter ICAO airport designator
Station Type Date Time Source
EPGD METAR 2019/06/26 22:00 UTC NOAA

EPGD 262200Z 28015KT 9999 FEW025 21/16 Q1014


Station Type Date Time Source
EPGD Decoded METAR 2019/06/26 22:00 UTC NOAA

Gdansk-Rebiechowo, Poland (EPGD) 54-23N 018-28E 138M
Jun 26, 2019 - 06:00 PM EDT / 2019.06.26 2200 UTC
Wind: from the W (280 degrees) at 17 MPH (15 KT):0
Visibility: greater than 7 mile(s):0
Sky conditions: mostly clear
Temperature: 69 F (21 C)
Dew Point: 60 F (16 C)
Relative Humidity: 73%
Pressure (altimeter): 29.94 in. Hg (1014 hPa)
ob: EPGD 262200Z 28015KT 9999 FEW025 21/16 Q1014
cycle: 22

Station Type Date Time Source
EPGD TAF 2019/06/26 18:33 UTC NOAA

TAF TAF EPGD 261730Z 2618/2718 VRB04KT CAVOK
BECMG 2618/2620 32012KT
TEMPO 2623/2718 32015G25KT PROB40
TEMPO 2708/2716 SCT030CB

Example: see airport list